createdAt,value
2014-09-27T09:17:37.542Z,102232
2014-09-27T09:17:55.776Z,102220
2014-09-27T09:18:13.995Z,102223
2014-09-27T09:18:32.214Z,102211
2014-09-27T09:18:49.951Z,102223
2014-09-27T09:19:07.045Z,102219
2014-09-27T09:19:24.045Z,102225
2014-09-27T09:19:42.406Z,102225
2014-09-27T09:20:00.625Z,102230
2014-09-27T09:20:18.844Z,102227
2014-09-27T09:20:36.440Z,102230
2014-09-27T09:20:54.658Z,102230
2014-09-27T09:21:12.268Z,102230
2014-09-27T09:21:29.861Z,102221
2014-09-27T09:21:48.113Z,102224
2014-09-27T09:22:06.348Z,102224
2014-09-27T09:22:24.067Z,102224
2014-09-27T09:22:42.286Z,102224
2014-09-27T09:23:00.505Z,102224
2014-09-27T09:23:18.739Z,102232
2014-09-27T09:23:37.114Z,102235
2014-09-27T09:23:54.711Z,102226
2014-09-27T09:24:12.977Z,102235
2014-09-27T09:24:31.336Z,102232
2014-09-27T09:24:49.557Z,102232
2014-09-27T09:25:07.776Z,102235
2014-09-27T09:25:24.744Z,102232
2014-09-27T09:25:42.354Z,102232
2014-09-27T09:25:59.950Z,102227
2014-09-27T09:26:17.543Z,102232
2014-09-27T09:26:35.778Z,102232
2014-09-27T09:26:51.483Z,102232
2014-09-27T09:27:09.733Z,102232
2014-09-27T09:27:27.952Z,102250
2014-09-27T09:27:44.936Z,102238
2014-09-27T09:28:02.516Z,102232
2014-09-27T09:28:20.125Z,102229
2014-09-27T09:28:37.719Z,102227
2014-09-27T09:28:55.956Z,102229
2014-09-27T09:29:14.174Z,102232
2014-09-27T09:29:31.752Z,102232
2014-09-27T09:29:49.362Z,102221
2014-09-27T09:30:07.708Z,102227
2014-09-27T09:30:25.942Z,102238
2014-09-27T09:30:44.161Z,102227
2014-09-27T09:31:01.756Z,102232
2014-09-27T09:31:20.100Z,102227
2014-09-27T09:31:38.335Z,102221
2014-09-27T09:31:56.678Z,102241
2014-09-27T09:32:13.790Z,102238
2014-09-27T09:32:31.383Z,102227
2014-09-27T09:32:48.977Z,102227
2014-09-27T09:33:06.602Z,102218
2014-09-27T09:33:24.821Z,102232
2014-09-27T09:33:43.039Z,102235
2014-09-27T09:34:00.946Z,102238
2014-09-27T09:34:19.249Z,102229
2014-09-27T09:34:37.468Z,102229
2014-09-27T09:34:55.687Z,102224
2014-09-27T09:35:13.356Z,102238
2014-09-27T09:35:30.950Z,102229
2014-09-27T09:35:48.544Z,102232
2014-09-27T09:36:06.763Z,102232
2014-09-27T09:36:23.924Z,102235
2014-09-27T09:36:42.268Z,102244
2014-09-27T09:36:59.877Z,102241
2014-09-27T09:37:18.200Z,102238
2014-09-27T09:37:36.419Z,102232
2014-09-27T09:37:54.638Z,102241
2014-09-27T09:38:12.232Z,102238
2014-09-27T09:38:29.993Z,102235
2014-09-27T09:38:47.587Z,102241
2014-09-27T09:39:04.540Z,102232
2014-09-27T09:39:22.177Z,102235
2014-09-27T09:39:39.770Z,102238
2014-09-27T09:39:57.364Z,102232
2014-09-27T09:40:15.583Z,102232
2014-09-27T09:40:33.843Z,102235
2014-09-27T09:40:51.578Z,102241
2014-09-27T09:41:09.812Z,102232
2014-09-27T09:41:28.059Z,102238
2014-09-27T09:41:45.668Z,102232
2014-09-27T09:42:03.887Z,102230
2014-09-27T09:42:22.106Z,102230
2014-09-27T09:42:39.742Z,102230
2014-09-27T09:42:57.320Z,102241
2014-09-27T09:43:14.930Z,102238
2014-09-27T09:43:33.162Z,102227
2014-09-27T09:43:51.381Z,102236
2014-09-27T09:44:09.600Z,102238
2014-09-27T09:44:27.194Z,102230
2014-09-27T09:44:45.423Z,102230
2014-09-27T09:45:03.673Z,102224
2014-09-27T09:45:21.892Z,102233
2014-09-27T09:45:40.137Z,102233
2014-09-27T09:45:58.497Z,102233
2014-09-27T09:46:15.606Z,102233
2014-09-27T09:46:33.825Z,102239
2014-09-27T09:46:51.413Z,102236
2014-09-27T09:47:09.632Z,102245
2014-09-27T09:47:27.241Z,102239
2014-09-27T09:47:45.487Z,102236
2014-09-27T09:48:03.237Z,102242
2014-09-27T09:48:21.455Z,102236
2014-09-27T09:48:39.674Z,102233
2014-09-27T09:48:58.038Z,102236
2014-09-27T09:49:15.757Z,102233
2014-09-27T09:49:34.117Z,102239
2014-09-27T09:49:52.341Z,102230
2014-09-27T09:50:09.935Z,102233
2014-09-27T09:50:27.529Z,102241
2014-09-27T09:50:45.763Z,102233
2014-09-27T09:51:03.362Z,102238
2014-09-27T09:51:20.956Z,102244
2014-09-27T09:51:39.174Z,102241
2014-09-27T09:51:56.789Z,102233
2014-09-27T09:52:15.133Z,102250
2014-09-27T09:52:32.242Z,102233
2014-09-27T09:52:49.836Z,102236
2014-09-27T09:53:08.075Z,102238
2014-09-27T09:53:26.419Z,102238
2014-09-27T09:53:44.638Z,102238
2014-09-27T09:54:03.001Z,102230
2014-09-27T09:54:21.360Z,102232
2014-09-27T09:54:38.970Z,102230
2014-09-27T09:54:57.204Z,102232
2014-09-27T09:55:14.800Z,102238
2014-09-27T09:55:32.409Z,102244
2014-09-27T09:55:50.628Z,102244
2014-09-27T09:56:08.851Z,102238
2014-09-27T09:56:26.460Z,102244
2014-09-27T09:56:44.038Z,102232
2014-09-27T09:57:02.273Z,102235
2014-09-27T09:57:19.854Z,102232
2014-09-27T09:57:38.088Z,102227
2014-09-27T09:57:56.307Z,102235
2014-09-27T09:58:14.529Z,102238
2014-09-27T09:58:32.122Z,102227
2014-09-27T09:58:50.357Z,102227
2014-09-27T09:59:08.591Z,102232
2014-09-27T09:59:26.812Z,102227
2014-09-27T09:59:44.406Z,102232
2014-09-27T10:00:01.999Z,102232
2014-09-27T10:00:20.361Z,102232
2014-09-27T10:00:38.579Z,102232
2014-09-27T10:00:56.798Z,102244
2014-09-27T10:01:14.392Z,102233
2014-09-27T10:01:32.614Z,102230
2014-09-27T10:01:50.848Z,102235
2014-09-27T10:02:09.067Z,102230
2014-09-27T10:02:26.664Z,102227
2014-09-27T10:02:44.882Z,102241
2014-09-27T10:03:02.476Z,102224
2014-09-27T10:03:20.695Z,102227
2014-09-27T10:03:38.916Z,102230
2014-09-27T10:03:57.150Z,102238
2014-09-27T10:04:15.369Z,102236
2014-09-27T10:04:33.589Z,102238
2014-09-27T10:04:51.808Z,102236
2014-09-27T10:05:10.043Z,102238
2014-09-27T10:05:27.636Z,102230
2014-09-27T10:05:45.233Z,102224
2014-09-27T10:06:02.827Z,102227
2014-09-27T10:06:21.046Z,102238
2014-09-27T10:06:39.282Z,102230
2014-09-27T10:06:57.516Z,102227
2014-09-27T10:07:15.735Z,102236
2014-09-27T10:07:33.313Z,102230
2014-09-27T10:07:51.550Z,102230
2014-09-27T10:08:09.143Z,102227
2014-09-27T10:08:27.378Z,102230
2014-09-27T10:08:45.598Z,102241
2014-09-27T10:09:03.192Z,102238
2014-09-27T10:09:21.427Z,102227
2014-09-27T10:09:39.645Z,102224
2014-09-27T10:09:57.882Z,102236
2014-09-27T10:10:15.491Z,102239
2014-09-27T10:10:33.850Z,102236
2014-09-27T10:10:51.462Z,102233
2014-09-27T10:11:09.056Z,102227
2014-09-27T10:11:27.290Z,102230
2014-09-27T10:11:44.259Z,102227
2014-09-27T10:12:02.604Z,102224
2014-09-27T10:12:20.839Z,102236
2014-09-27T10:12:38.433Z,102236
2014-09-27T10:12:56.670Z,102241
2014-09-27T10:13:13.623Z,102236
2014-09-27T10:13:31.842Z,102227
2014-09-27T10:13:50.076Z,102233
2014-09-27T10:14:08.313Z,102238
2014-09-27T10:14:25.281Z,102233
2014-09-27T10:14:43.500Z,102244
2014-09-27T10:15:32.173Z,102233
2014-09-27T10:15:50.407Z,102230
2014-09-27T10:16:08.159Z,102241
2014-09-27T10:16:26.378Z,102238
2014-09-27T10:16:44.612Z,102236
2014-09-27T10:17:02.333Z,102224
2014-09-27T10:17:19.302Z,102238
2014-09-27T10:17:37.536Z,102244
2014-09-27T10:17:55.880Z,102230
2014-09-27T10:18:14.241Z,102230
2014-09-27T10:18:31.976Z,102230
2014-09-27T10:18:50.210Z,102238
2014-09-27T10:19:07.807Z,102230
2014-09-27T10:19:26.166Z,102236
2014-09-27T10:19:43.776Z,102236
2014-09-27T10:20:01.369Z,102233
2014-09-27T10:20:19.105Z,102227
2014-09-27T10:20:37.324Z,102230
2014-09-27T10:20:55.683Z,102227
2014-09-27T10:21:13.920Z,102233
2014-09-27T10:21:32.155Z,102230
2014-09-27T10:21:50.389Z,102215
2014-09-27T10:22:07.983Z,102227
2014-09-27T10:22:26.219Z,102215
2014-09-27T10:22:43.813Z,102224
2014-09-27T10:23:01.407Z,102221
2014-09-27T10:23:19.751Z,102224
2014-09-27T10:23:38.111Z,102224
2014-09-27T10:23:56.345Z,102227
2014-09-27T10:24:14.689Z,102235
2014-09-27T10:24:32.926Z,102230
2014-09-27T10:24:51.286Z,102218
2014-09-27T10:25:09.504Z,102224
2014-09-27T10:25:27.740Z,102235
2014-09-27T10:25:45.459Z,102230
2014-09-27T10:26:03.193Z,102235
2014-09-27T10:26:21.412Z,102227
2014-09-27T10:26:39.007Z,102232
2014-09-27T10:26:56.617Z,102230
2014-09-27T10:27:14.211Z,102224
2014-09-27T10:27:32.431Z,102224
2014-09-27T10:27:50.650Z,102235
2014-09-27T10:28:08.884Z,102227
2014-09-27T10:28:26.478Z,102218
2014-09-27T10:28:44.699Z,102224
2014-09-27T10:29:02.918Z,102224
2014-09-27T10:29:21.152Z,102230
2014-09-27T10:29:39.514Z,102230
2014-09-27T10:29:57.733Z,102230
2014-09-27T10:30:15.968Z,102232
2014-09-27T10:30:33.561Z,102227
2014-09-27T10:30:51.782Z,102230
2014-09-27T10:31:10.016Z,102227
2014-09-27T10:31:28.235Z,102224
2014-09-27T10:31:46.456Z,102235
2014-09-27T10:32:04.675Z,102235
2014-09-27T10:32:23.065Z,102227
2014-09-27T10:32:40.659Z,102230
2014-09-27T10:32:58.879Z,102229
2014-09-27T10:33:16.473Z,102235
2014-09-27T10:33:34.066Z,102227
2014-09-27T10:33:51.162Z,102235
2014-09-27T10:34:08.756Z,102232
2014-09-27T10:34:26.350Z,102235
2014-09-27T10:34:44.568Z,102227
2014-09-27T10:35:02.806Z,102232
2014-09-27T10:35:21.024Z,102235
2014-09-27T10:35:39.384Z,102232
2014-09-27T10:35:57.620Z,102232
2014-09-27T10:36:15.214Z,102232
2014-09-27T10:36:32.792Z,102227
2014-09-27T10:36:50.401Z,102227
2014-09-27T10:37:08.637Z,102221
2014-09-27T10:37:26.996Z,102235
2014-09-27T10:37:43.949Z,102232
2014-09-27T10:38:01.562Z,102227
2014-09-27T10:38:19.812Z,102232
2014-09-27T10:38:37.421Z,102232
2014-09-27T10:38:55.015Z,102221
2014-09-27T10:39:13.235Z,102227
2014-09-27T10:39:31.469Z,102235
2014-09-27T10:39:49.688Z,102227
2014-09-27T10:40:06.675Z,102232
2014-09-27T10:40:24.909Z,102230
2014-09-27T10:40:43.128Z,102235
2014-09-27T10:41:01.347Z,102224
2014-09-27T10:41:18.943Z,102218
2014-09-27T10:41:37.177Z,102230
2014-09-27T10:41:55.396Z,102218
2014-09-27T10:42:13.617Z,102230
2014-09-27T10:42:31.210Z,102227
2014-09-27T10:42:49.445Z,102238
2014-09-27T10:43:07.648Z,102230
2014-09-27T10:43:25.244Z,102233
2014-09-27T10:44:13.651Z,102224
2014-09-27T10:44:31.870Z,102227
2014-09-27T10:44:50.104Z,102230
2014-09-27T10:45:08.323Z,102233
2014-09-27T10:45:26.543Z,102230
2014-09-27T10:45:44.778Z,102221
2014-09-27T10:46:02.372Z,102227
2014-09-27T10:46:20.592Z,102227
2014-09-27T10:46:37.577Z,102227
2014-09-27T10:46:55.920Z,102236
2014-09-27T10:47:13.514Z,102233
2014-09-27T10:47:31.110Z,102238
2014-09-27T10:47:48.219Z,102227
2014-09-27T10:48:05.954Z,102233
2014-09-27T10:48:24.175Z,102230
2014-09-27T10:48:42.535Z,102233
2014-09-27T10:49:00.129Z,102227
2014-09-27T10:49:18.347Z,102227
2014-09-27T10:49:36.567Z,102221
2014-09-27T10:49:54.786Z,102221
2014-09-27T10:50:13.005Z,102230
2014-09-27T10:50:30.600Z,102227
2014-09-27T10:50:48.960Z,102238
2014-09-27T10:51:05.928Z,102224
2014-09-27T10:51:24.163Z,102236
2014-09-27T10:51:41.119Z,102227
2014-09-27T10:51:58.713Z,102224
2014-09-27T10:52:17.072Z,102224
2014-09-27T10:52:34.682Z,102233
2014-09-27T10:52:52.917Z,102224
2014-09-27T10:53:10.511Z,102236
2014-09-27T10:53:28.104Z,102233
2014-09-27T10:53:45.825Z,102233
2014-09-27T10:54:04.044Z,102230
2014-09-27T10:54:21.778Z,102227
2014-09-27T10:54:39.999Z,102233
2014-09-27T10:54:56.968Z,102236
2014-09-27T10:55:15.186Z,102238
2014-09-27T10:55:32.780Z,102236
2014-09-27T10:55:50.377Z,102238
2014-09-27T10:56:07.971Z,102236
2014-09-27T10:56:26.330Z,102227
2014-09-27T10:56:44.551Z,102238
2014-09-27T10:57:02.285Z,102227
2014-09-27T10:57:19.863Z,102241
2014-09-27T10:57:38.082Z,102233
2014-09-27T10:57:55.692Z,102233
2014-09-27T10:58:13.911Z,102236
2014-09-27T10:58:32.271Z,102224
2014-09-27T10:58:49.991Z,102236
2014-09-27T10:59:08.226Z,102227
2014-09-27T10:59:25.819Z,102224
2014-09-27T10:59:44.054Z,102247
2014-09-27T11:00:02.275Z,102233
2014-09-27T11:00:20.493Z,102224
2014-09-27T11:00:38.087Z,102238
2014-09-27T11:00:56.465Z,102230
2014-09-27T11:01:14.684Z,102238
2014-09-27T11:01:31.637Z,102227
2014-09-27T11:01:49.371Z,102230
2014-09-27T11:02:07.592Z,102221
2014-09-27T11:02:25.811Z,102236
2014-09-27T11:02:44.030Z,102224
2014-09-27T11:03:02.249Z,102218
2014-09-27T11:03:20.468Z,102230
2014-09-27T11:03:38.687Z,102218
2014-09-27T11:03:56.906Z,102239
2014-09-27T11:04:15.127Z,102227
2014-09-27T11:04:32.721Z,102221
2014-09-27T11:04:49.065Z,102239
2014-09-27T11:05:06.661Z,102230
2014-09-27T11:05:24.239Z,102230
2014-09-27T11:05:41.832Z,102221
2014-09-27T11:05:59.426Z,102227
2014-09-27T11:06:17.647Z,102221
2014-09-27T11:06:35.241Z,102221
2014-09-27T11:06:53.475Z,102227
2014-09-27T11:07:11.695Z,102230
2014-09-27T11:07:29.289Z,102233
2014-09-27T11:07:46.257Z,102227
2014-09-27T11:08:03.210Z,102227
2014-09-27T11:08:21.572Z,102230
2014-09-27T11:08:39.791Z,102224
2014-09-27T11:08:58.009Z,102227
2014-09-27T11:09:16.244Z,102227
2014-09-27T11:09:33.824Z,102230
2014-09-27T11:09:50.793Z,102221
2014-09-27T11:10:09.152Z,102221
2014-09-27T11:10:27.374Z,102221
2014-09-27T11:10:44.967Z,102227
2014-09-27T11:11:01.936Z,102221
2014-09-27T11:11:19.530Z,102232
2014-09-27T11:11:37.751Z,102221
2014-09-27T11:11:55.969Z,102227
2014-09-27T11:12:14.204Z,102224
2014-09-27T11:12:32.440Z,102224
2014-09-27T11:12:49.409Z,102230
2014-09-27T11:13:07.768Z,102227
2014-09-27T11:13:25.362Z,102236
2014-09-27T11:13:43.582Z,102224
2014-09-27T11:14:00.676Z,102218
2014-09-27T11:14:18.269Z,102227
2014-09-27T11:14:36.490Z,102227
2014-09-27T11:14:54.224Z,102221
2014-09-27T11:15:12.584Z,102218
2014-09-27T11:15:30.943Z,102224
2014-09-27T11:15:48.556Z,102224
2014-09-27T11:16:06.759Z,102221
2014-09-27T11:16:25.118Z,102233
2014-09-27T11:16:42.229Z,102221
2014-09-27T11:16:59.823Z,102218
2014-09-27T11:17:18.042Z,102224
2014-09-27T11:17:36.276Z,102224
2014-09-27T11:17:54.497Z,102221
2014-09-27T11:18:12.731Z,102221
2014-09-27T11:18:30.450Z,102227
2014-09-27T11:18:48.687Z,102221
2014-09-27T11:19:06.905Z,102221
2014-09-27T11:19:25.124Z,102218
2014-09-27T11:19:43.358Z,102218
2014-09-27T11:20:01.578Z,102221
2014-09-27T11:20:19.797Z,102218
2014-09-27T11:20:38.016Z,102230
2014-09-27T11:20:55.612Z,102221
2014-09-27T11:21:13.831Z,102230
2014-09-27T11:21:31.425Z,102224
2014-09-27T11:21:49.646Z,102236
2014-09-27T11:22:07.239Z,102227
2014-09-27T11:22:25.474Z,102227
2014-09-27T11:22:43.693Z,102230
2014-09-27T11:23:01.288Z,102218
2014-09-27T11:23:19.007Z,102236
2014-09-27T11:23:37.366Z,102230
2014-09-27T11:23:55.711Z,102227
2014-09-27T11:24:13.946Z,102224
2014-09-27T11:24:32.305Z,102216
2014-09-27T11:24:49.258Z,102221
2014-09-27T11:25:07.620Z,102218
2014-09-27T11:25:25.839Z,102224
2014-09-27T11:25:44.074Z,102230
2014-09-27T11:26:02.294Z,102227
2014-09-27T11:26:19.888Z,102233
2014-09-27T11:26:38.091Z,102224
2014-09-27T11:26:56.451Z,102224
2014-09-27T11:27:14.671Z,102230
2014-09-27T11:27:32.906Z,102227
2014-09-27T11:27:50.624Z,102233
2014-09-27T11:28:08.219Z,102215
2014-09-27T11:28:25.813Z,102215
2014-09-27T11:28:44.047Z,102224
2014-09-27T11:29:02.266Z,102224
2014-09-27T11:29:20.487Z,102227
2014-09-27T11:29:38.706Z,102221
2014-09-27T11:29:56.940Z,102224
2014-09-27T11:30:14.536Z,102230
2014-09-27T11:30:32.129Z,102230
2014-09-27T11:30:49.708Z,102227
2014-09-27T11:31:07.301Z,102233
2014-09-27T11:31:24.898Z,102227
2014-09-27T11:31:43.117Z,102227
2014-09-27T11:32:01.336Z,102241
2014-09-27T11:32:19.572Z,102218
2014-09-27T11:32:37.791Z,102236
2014-09-27T11:32:56.150Z,102221
2014-09-27T11:33:14.369Z,102236
2014-09-27T11:33:31.948Z,102238
2014-09-27T11:33:49.542Z,102233
2014-09-27T11:34:07.776Z,102224
2014-09-27T11:34:25.373Z,102236
2014-09-27T11:34:42.967Z,102239
2014-09-27T11:35:01.185Z,102236
2014-09-27T11:35:18.779Z,102236
2014-09-27T11:35:36.515Z,102224
2014-09-27T11:35:54.734Z,102233
2014-09-27T11:36:12.344Z,102239
2014-09-27T11:36:29.939Z,102242
2014-09-27T11:36:47.658Z,102230
2014-09-27T11:37:05.252Z,102221
2014-09-27T11:37:22.846Z,102230
2014-09-27T11:37:41.065Z,102227
2014-09-27T11:37:59.284Z,102227
2014-09-27T11:38:17.503Z,102227
2014-09-27T11:38:35.725Z,102215
2014-09-27T11:38:53.959Z,102238
2014-09-27T11:39:12.178Z,102233
2014-09-27T11:39:30.396Z,102232
2014-09-27T11:39:48.758Z,102233
2014-09-27T11:40:06.352Z,102227
2014-09-27T11:40:23.945Z,102233
2014-09-27T11:40:42.165Z,102227
2014-09-27T11:41:00.384Z,102218
2014-09-27T11:41:18.618Z,102235
2014-09-27T11:41:36.837Z,102235
2014-09-27T11:41:55.059Z,102227
2014-09-27T11:42:12.652Z,102230
2014-09-27T11:42:30.246Z,102221
2014-09-27T11:42:48.467Z,102229
2014-09-27T11:43:06.686Z,102232
2014-09-27T11:43:24.279Z,102227
2014-09-27T11:43:42.623Z,102227
2014-09-27T11:44:00.860Z,102232
2014-09-27T11:44:19.078Z,102241
2014-09-27T11:44:37.297Z,102229
2014-09-27T11:44:54.268Z,102224
2014-09-27T11:45:11.862Z,102235
2014-09-27T11:45:29.455Z,102232
2014-09-27T11:45:47.049Z,102232
2014-09-27T11:46:04.020Z,102232
2014-09-27T11:46:21.614Z,102235
2014-09-27T11:46:39.832Z,102235
2014-09-27T11:46:56.160Z,102230
2014-09-27T11:47:13.756Z,102230
2014-09-27T11:47:32.116Z,102236
2014-09-27T11:47:49.069Z,102233
2014-09-27T11:48:07.287Z,102233
2014-09-27T11:48:25.525Z,102224
2014-09-27T11:48:43.884Z,102236
2014-09-27T11:49:02.228Z,102233
2014-09-27T11:49:19.964Z,102224
2014-09-27T11:49:38.183Z,102230
2014-09-27T11:49:56.417Z,102227
2014-09-27T11:50:14.636Z,102224
2014-09-27T11:50:31.606Z,102224
2014-09-27T11:50:49.825Z,102213
2014-09-27T11:51:07.418Z,102219
2014-09-27T11:51:25.639Z,102227
2014-09-27T11:51:43.874Z,102230
2014-09-27T11:52:02.108Z,102230
2014-09-27T11:52:19.702Z,102230
2014-09-27T11:52:59.219Z,102227
2014-09-27T11:53:16.813Z,102225
2014-09-27T11:53:35.035Z,102236
2014-09-27T11:53:52.629Z,102227
2014-09-27T11:54:09.738Z,102227
2014-09-27T11:54:27.957Z,102227
2014-09-27T11:54:45.677Z,102225
2014-09-27T11:55:04.037Z,102225
2014-09-27T11:55:22.256Z,102222
2014-09-27T11:55:40.491Z,102219
2014-09-27T11:55:58.710Z,102213
2014-09-27T11:56:16.928Z,102219
2014-09-27T11:56:35.147Z,102231
2014-09-27T11:56:52.118Z,102228
2014-09-27T11:57:10.493Z,102225
2014-09-27T11:57:28.087Z,102225
2014-09-27T11:57:45.058Z,102228
2014-09-27T11:58:03.277Z,102219
2014-09-27T11:58:21.496Z,102228
2014-09-27T11:58:39.715Z,102231
2014-09-27T11:58:57.951Z,102228
2014-09-27T11:59:15.529Z,102219
2014-09-27T11:59:32.498Z,102222
2014-09-27T11:59:49.609Z,102222
2014-09-27T12:00:07.828Z,102228
2014-09-27T12:00:24.797Z,102205
2014-09-27T12:00:42.406Z,102228
2014-09-27T12:01:00.611Z,102228
2014-09-27T12:01:17.596Z,102228
2014-09-27T12:01:35.814Z,102231
2014-09-27T12:01:54.050Z,102225
2014-09-27T12:02:11.644Z,102222
2014-09-27T12:02:29.237Z,102225
2014-09-27T12:02:47.458Z,102222
2014-09-27T12:03:05.677Z,102219
2014-09-27T12:03:23.911Z,102213
2014-09-27T12:03:41.630Z,102225
2014-09-27T12:03:59.242Z,102228
2014-09-27T12:04:16.836Z,102219
2014-09-27T12:04:34.555Z,102219
2014-09-27T12:04:52.805Z,102225
2014-09-27T12:05:11.010Z,102228
2014-09-27T12:05:27.979Z,102228
2014-09-27T12:05:45.557Z,102219
2014-09-27T12:06:03.917Z,102213
2014-09-27T12:06:22.277Z,102225
2014-09-27T12:06:40.620Z,102225
2014-09-27T12:06:58.245Z,102230
2014-09-27T12:07:15.825Z,102216
2014-09-27T12:07:32.794Z,102228
2014-09-27T12:07:51.029Z,102225
2014-09-27T12:08:09.390Z,102225
2014-09-27T12:08:26.343Z,102228
2014-09-27T12:08:44.077Z,102216
2014-09-27T12:09:02.312Z,102219
2014-09-27T12:09:20.534Z,102225
2014-09-27T12:09:38.752Z,102225
2014-09-27T12:09:56.971Z,102222
2014-09-27T12:10:15.192Z,102219
2014-09-27T12:10:32.801Z,102225
2014-09-27T12:10:50.395Z,102219
2014-09-27T12:11:06.739Z,102230
2014-09-27T12:11:24.959Z,102225
2014-09-27T12:11:43.178Z,102228
2014-09-27T12:12:01.397Z,102216
2014-09-27T12:12:19.616Z,102225
2014-09-27T12:12:37.835Z,102233
2014-09-27T12:12:55.445Z,102219
2014-09-27T12:13:13.664Z,102213
2014-09-27T12:13:31.885Z,102219
2014-09-27T12:13:50.120Z,102219
2014-09-27T12:14:08.338Z,102219
2014-09-27T12:14:25.307Z,102231
2014-09-27T12:14:43.528Z,102228
2014-09-27T12:15:01.747Z,102225
2014-09-27T12:15:19.481Z,102213
2014-09-27T12:15:37.702Z,102216
2014-09-27T12:15:55.436Z,102219
2014-09-27T12:16:11.764Z,102222
2014-09-27T12:16:30.124Z,102231
2014-09-27T12:16:48.344Z,102222
2014-09-27T12:17:06.063Z,102222
2014-09-27T12:17:23.673Z,102216
2014-09-27T12:17:40.659Z,102216
2014-09-27T12:17:58.878Z,102219
2014-09-27T12:18:17.096Z,102228
2014-09-27T12:18:35.331Z,102222
2014-09-27T12:18:52.927Z,102222
2014-09-27T12:19:11.145Z,102216
2014-09-27T12:19:29.364Z,102219
2014-09-27T12:19:46.960Z,102213
2014-09-27T12:20:05.194Z,102219
2014-09-27T12:20:23.429Z,102222
2014-09-27T12:20:40.522Z,102219
2014-09-27T12:20:58.884Z,102213
2014-09-27T12:21:16.477Z,102219
2014-09-27T12:21:34.071Z,102219
2014-09-27T12:21:52.308Z,102225
2014-09-27T12:22:09.917Z,102213
2014-09-27T12:22:27.495Z,102222
2014-09-27T12:22:45.839Z,102225
2014-09-27T12:23:03.435Z,102219
2014-09-27T12:23:21.169Z,102219
2014-09-27T12:23:39.388Z,102222
2014-09-27T12:23:56.358Z,102216
2014-09-27T12:24:13.952Z,102219
2014-09-27T12:24:32.187Z,102216
2014-09-27T12:24:49.780Z,102216
2014-09-27T12:25:08.001Z,102213
2014-09-27T12:25:25.595Z,102219
2014-09-27T12:25:43.829Z,102225
2014-09-27T12:26:02.050Z,102208
2014-09-27T12:26:20.269Z,102214
2014-09-27T12:26:38.503Z,102208
2014-09-27T12:26:55.472Z,102214
2014-09-27T12:27:13.052Z,102202
2014-09-27T12:27:30.661Z,102214
2014-09-27T12:27:48.255Z,102211
2014-09-27T12:28:05.835Z,102205
2014-09-27T12:28:24.210Z,102214
2014-09-27T12:28:41.788Z,102214
2014-09-27T12:29:00.007Z,102208
2014-09-27T12:29:17.618Z,102217
2014-09-27T12:29:35.837Z,102213
2014-09-27T12:29:54.056Z,102214
2014-09-27T12:30:11.667Z,102208
2014-09-27T12:30:29.886Z,102211
2014-09-27T12:30:47.480Z,102213
2014-09-27T12:31:05.074Z,102213
2014-09-27T12:31:22.169Z,102219
2014-09-27T12:31:40.404Z,102211
2014-09-27T12:31:57.997Z,102214
2014-09-27T12:32:16.218Z,102208
2014-09-27T12:32:34.437Z,102208
2014-09-27T12:32:52.796Z,102208
2014-09-27T12:33:10.531Z,102199
2014-09-27T12:33:28.875Z,102214
2014-09-27T12:33:47.110Z,102208
2014-09-27T12:34:05.329Z,102216
2014-09-27T12:34:22.332Z,102211
2014-09-27T12:34:39.941Z,102216
2014-09-27T12:34:58.144Z,102213
2014-09-27T12:35:16.503Z,102208
2014-09-27T12:35:34.865Z,102211
2014-09-27T12:35:53.084Z,102216
2014-09-27T12:36:11.318Z,102205
2014-09-27T12:36:29.664Z,102219
2014-09-27T12:36:47.882Z,102216
2014-09-27T12:37:06.117Z,102213
2014-09-27T12:37:24.338Z,102211
2014-09-27T12:37:41.931Z,102202
2014-09-27T12:37:58.884Z,102211
2014-09-27T12:38:17.134Z,102213
2014-09-27T12:38:35.354Z,102214
2014-09-27T12:38:53.573Z,102208
2014-09-27T12:39:11.167Z,102208
2014-09-27T12:39:29.388Z,102214
2014-09-27T12:39:46.357Z,102211
2014-09-27T12:40:04.592Z,102208
2014-09-27T12:40:22.810Z,102211
2014-09-27T12:40:41.187Z,102208
2014-09-27T12:40:59.406Z,102202
2014-09-27T12:41:17.000Z,102208
2014-09-27T12:41:34.596Z,102202
2014-09-27T12:41:52.189Z,102211
2014-09-27T12:42:10.408Z,102202
2014-09-27T12:42:28.658Z,102217
2014-09-27T12:42:46.879Z,102205
2014-09-27T12:43:05.098Z,102199
2014-09-27T12:43:22.066Z,102211
2014-09-27T12:43:40.427Z,102211
2014-09-27T12:43:58.020Z,102205
2014-09-27T12:44:16.380Z,102217
2014-09-27T12:44:34.614Z,102205
2014-09-27T12:44:52.211Z,102199
2014-09-27T12:45:09.820Z,102211
2014-09-27T12:45:26.773Z,102199
2014-09-27T12:45:45.009Z,102199
2014-09-27T12:46:02.603Z,102205
2014-09-27T12:46:20.181Z,102202
2014-09-27T12:46:38.415Z,102199
2014-09-27T12:46:56.637Z,102202
2014-09-27T12:47:14.215Z,102205
2014-09-27T12:47:32.434Z,102199
2014-09-27T12:47:50.029Z,102202
2014-09-27T12:48:08.248Z,102208
2014-09-27T12:48:26.467Z,102211
2014-09-27T12:48:44.686Z,102208
2014-09-27T12:49:01.656Z,102208
2014-09-27T12:49:18.610Z,102208
2014-09-27T12:49:36.969Z,102205
2014-09-27T12:49:54.579Z,102199
2014-09-27T12:50:12.782Z,102205
2014-09-27T12:50:31.001Z,102202
2014-09-27T12:50:49.345Z,102205
2014-09-27T12:51:06.942Z,102199
2014-09-27T12:51:24.535Z,102205
2014-09-27T12:51:42.895Z,102202
2014-09-27T12:51:59.366Z,102196
2014-09-27T12:52:17.084Z,102205
2014-09-27T12:52:35.319Z,102211
2014-09-27T12:52:52.912Z,102197
2014-09-27T12:53:10.648Z,102205
2014-09-27T12:53:28.242Z,102205
2014-09-27T12:53:46.601Z,102199
2014-09-27T12:54:04.823Z,102202
2014-09-27T12:54:23.057Z,102211
2014-09-27T12:54:40.635Z,102205
2014-09-27T12:54:58.854Z,102205
2014-09-27T12:55:17.075Z,102202
2014-09-27T12:55:36.215Z,102199
2014-09-27T12:55:54.590Z,102191
2014-09-27T12:56:11.686Z,102211
2014-09-27T12:56:28.639Z,102208
2014-09-27T12:56:46.858Z,102208
2014-09-27T12:57:04.452Z,102199
2014-09-27T12:57:22.672Z,102208
2014-09-27T12:57:40.266Z,102202
2014-09-27T12:57:58.001Z,102208
2014-09-27T12:58:15.612Z,102205
2014-09-27T12:58:33.956Z,102199
2014-09-27T12:58:51.549Z,102205
2014-09-27T12:59:09.768Z,102193
2014-09-27T12:59:27.989Z,102196
2014-09-27T12:59:46.208Z,102205
2014-09-27T13:00:03.801Z,102193
2014-09-27T13:00:20.757Z,102214
2014-09-27T13:00:38.975Z,102211
2014-09-27T13:00:57.210Z,102211
2014-09-27T13:01:14.803Z,102208
2014-09-27T13:01:33.024Z,102208
2014-09-27T13:01:51.368Z,102208
2014-09-27T13:02:08.337Z,102208
2014-09-27T13:02:25.932Z,102199